createdAt,value
2023-03-17T00:00:22.514Z,2.24
2023-03-17T00:02:59.845Z,2.43
2023-03-17T00:05:37.215Z,2.38
2023-03-17T00:08:19.461Z,2.40
2023-03-17T00:10:56.353Z,2.28
2023-03-17T00:13:32.176Z,2.30
2023-03-17T00:16:12.968Z,2.21
2023-03-17T00:18:48.416Z,1.89
2023-03-17T00:21:27.339Z,2.14
2023-03-17T00:24:02.192Z,2.34
2023-03-17T00:26:36.422Z,2.56
2023-03-17T00:29:11.187Z,2.56
2023-03-17T00:31:46.431Z,2.75
2023-03-17T00:34:21.522Z,2.50
2023-03-17T00:36:57.413Z,2.33
2023-03-17T00:39:32.093Z,2.04
2023-03-17T00:42:06.990Z,1.82
2023-03-17T00:44:41.658Z,1.91
2023-03-17T00:47:16.362Z,6.09
2023-03-17T00:49:50.968Z,6.90
2023-03-17T00:52:27.609Z,4.11
2023-03-17T00:55:02.335Z,3.16
2023-03-17T00:57:37.118Z,2.61
2023-03-17T01:00:31.820Z,2.21
2023-03-17T01:03:06.511Z,2.07
2023-03-17T01:05:42.686Z,1.53
2023-03-17T01:08:18.459Z,1.48
2023-03-17T01:10:53.075Z,1.62
2023-03-17T01:13:27.672Z,1.58
2023-03-17T01:16:02.757Z,1.63
2023-03-17T01:18:37.208Z,1.73
2023-03-17T01:21:12.782Z,1.91
2023-03-17T01:23:48.441Z,1.75
2023-03-17T01:26:25.943Z,1.27
2023-03-17T01:29:01.389Z,0.87
2023-03-17T01:31:36.390Z,1.18
2023-03-17T01:34:12.743Z,1.47
2023-03-17T01:36:47.565Z,1.70
2023-03-17T01:39:23.308Z,1.72
2023-03-17T01:42:01.455Z,1.60
2023-03-17T01:44:37.190Z,1.63
2023-03-17T01:47:11.888Z,1.51
2023-03-17T01:49:46.358Z,1.56
2023-03-17T01:52:23.013Z,1.57
2023-03-17T01:55:05.046Z,1.57
2023-03-17T01:57:42.560Z,1.56
2023-03-17T02:00:19.954Z,1.55
2023-03-17T02:02:56.918Z,1.53
2023-03-17T02:05:33.147Z,1.54
2023-03-17T02:08:12.451Z,1.57
2023-03-17T02:10:50.739Z,1.38
2023-03-17T02:13:25.585Z,1.39
2023-03-17T02:16:00.632Z,0.94
2023-03-17T02:18:35.204Z,0.61
2023-03-17T02:21:41.070Z,0.84
2023-03-17T02:24:23.627Z,0.95
2023-03-17T02:27:02.711Z,0.97
2023-03-17T02:29:37.988Z,0.75
2023-03-17T02:32:12.594Z,0.93
2023-03-17T02:34:47.994Z,0.65
2023-03-17T02:37:23.909Z,0.63
2023-03-17T02:40:01.229Z,0.81
2023-03-17T02:42:36.744Z,0.76
2023-03-17T02:45:12.814Z,0.41
2023-03-17T02:47:48.101Z,0.38
2023-03-17T02:50:25.366Z,0.44
2023-03-17T02:53:01.535Z,0.49
2023-03-17T02:55:35.784Z,0.42
2023-03-17T02:58:10.534Z,0.38
2023-03-17T03:00:44.883Z,0.71
2023-03-17T03:03:19.408Z,0.68
2023-03-17T03:05:53.739Z,0.69
2023-03-17T03:08:29.675Z,0.49
2023-03-17T03:11:05.075Z,0.55
2023-03-17T03:13:39.668Z,0.41
2023-03-17T03:16:14.626Z,0.70
2023-03-17T03:18:49.667Z,0.57
2023-03-17T03:21:23.856Z,0.85
2023-03-17T03:24:00.250Z,0.96
2023-03-17T03:26:34.467Z,1.13
2023-03-17T03:29:09.203Z,1.23
2023-03-17T03:31:43.763Z,1.25
2023-03-17T03:34:18.438Z,1.63
2023-03-17T03:36:52.733Z,0.69
2023-03-17T03:39:28.733Z,0.10
2023-03-17T03:42:02.957Z,0.09
2023-03-17T03:44:37.828Z,0.22
2023-03-17T03:47:12.268Z,0.37
2023-03-17T03:49:46.919Z,0.17
2023-03-17T03:52:21.190Z,0.07
2023-03-17T03:54:57.114Z,0.04
2023-03-17T03:57:31.421Z,0.11
2023-03-17T04:00:08.023Z,0.39
2023-03-17T04:02:46.904Z,0.47
2023-03-17T04:05:21.752Z,0.16
2023-03-17T04:07:56.198Z,0.21
2023-03-17T04:10:32.926Z,0.26
2023-03-17T04:13:08.540Z,0.37
2023-03-17T04:15:43.203Z,0.35
2023-03-17T04:18:17.609Z,0.37
2023-03-17T04:20:52.230Z,0.25
2023-03-17T04:23:26.634Z,0.13
2023-03-17T04:26:04.212Z,0.56
2023-03-17T04:28:38.670Z,0.43
2023-03-17T04:31:13.795Z,0.46
2023-03-17T04:33:48.268Z,0.52
2023-03-17T04:36:24.566Z,0.62
2023-03-17T04:38:58.756Z,0.46
2023-03-17T04:41:35.315Z,0.81
2023-03-17T04:44:09.914Z,0.95
2023-03-17T04:46:44.442Z,0.72
2023-03-17T04:49:18.946Z,0.60
2023-03-17T04:51:53.999Z,0.54
2023-03-17T04:54:28.631Z,0.57
2023-03-17T04:57:04.879Z,0.38
2023-03-17T04:59:39.168Z,0.30
2023-03-17T05:02:14.081Z,0.47
2023-03-17T05:04:48.827Z,0.53
2023-03-17T05:07:23.391Z,0.60
2023-03-17T05:09:58.038Z,0.64
2023-03-17T05:12:34.177Z,0.47
2023-03-17T05:15:10.166Z,0.25
2023-03-17T05:17:44.844Z,-0.08
2023-03-17T05:20:19.386Z,-0.03
2023-03-17T05:22:53.939Z,0.26
2023-03-17T05:25:28.183Z,0.55
2023-03-17T05:28:04.617Z,0.60
2023-03-17T05:30:39.049Z,0.69
2023-03-17T05:33:14.647Z,0.76
2023-03-17T05:35:49.111Z,1.07
2023-03-17T05:38:25.169Z,1.20
2023-03-17T05:41:00.096Z,1.34
2023-03-17T05:43:36.158Z,1.43
2023-03-17T05:46:11.266Z,3.61
2023-03-17T05:48:47.114Z,8.03
2023-03-17T05:51:22.902Z,6.23
2023-03-17T05:53:57.864Z,4.66
2023-03-17T05:56:33.950Z,3.65
2023-03-17T05:59:10.703Z,3.38
2023-03-17T06:01:45.489Z,3.27
2023-03-17T06:04:20.155Z,3.10
2023-03-17T06:06:54.461Z,2.99
2023-03-17T06:09:29.506Z,2.88
2023-03-17T06:12:03.725Z,8.22
2023-03-17T06:14:39.640Z,6.94
2023-03-17T06:17:14.523Z,5.07
2023-03-17T06:19:49.567Z,4.15
2023-03-17T06:22:23.770Z,7.59
2023-03-17T06:24:58.285Z,7.02
2023-03-17T06:27:32.603Z,5.59
2023-03-17T06:30:10.492Z,5.13
2023-03-17T06:32:44.809Z,4.86
2023-03-17T06:35:19.490Z,4.63
2023-03-17T06:37:54.192Z,4.47
2023-03-17T06:40:29.089Z,4.05
2023-03-17T06:43:04.453Z,3.94
2023-03-17T06:45:41.231Z,3.90
2023-03-17T06:48:15.571Z,4.04
2023-03-17T06:50:50.243Z,4.07
2023-03-17T06:53:24.780Z,4.31
2023-03-17T06:55:59.491Z,3.92
2023-03-17T06:58:33.805Z,3.66
2023-03-17T07:02:53.264Z,4.18
2023-03-17T07:05:28.539Z,4.18
2023-03-17T07:08:02.899Z,3.75
2023-03-17T07:10:37.592Z,3.97
2023-03-17T07:13:12.254Z,4.14
2023-03-17T07:15:46.825Z,4.20
2023-03-17T07:18:22.538Z,4.28
2023-03-17T07:20:57.480Z,4.44
2023-03-17T07:23:31.849Z,4.53
2023-03-17T07:26:06.717Z,4.50
2023-03-17T07:28:41.186Z,4.75
2023-03-17T07:31:15.805Z,4.87
2023-03-17T07:33:51.954Z,4.88
2023-03-17T09:28:33.014Z,11.33
2023-03-17T09:31:11.550Z,11.33
2023-03-17T09:33:45.841Z,10.77
2023-03-17T09:36:20.438Z,10.59
2023-03-17T09:38:54.645Z,10.71
2023-03-17T09:41:50.451Z,10.67
2023-03-17T09:44:39.661Z,10.22
2023-03-17T09:47:27.012Z,9.87
2023-03-17T09:50:04.496Z,9.59
2023-03-17T09:52:39.887Z,9.99
2023-03-17T09:55:23.526Z,10.27
2023-03-17T09:58:01.059Z,10.40
2023-03-17T10:00:36.806Z,9.97
2023-03-17T10:03:13.540Z,10.01
2023-03-17T10:05:48.172Z,10.16
2023-03-17T10:08:31.566Z,10.50
2023-03-17T10:11:15.382Z,10.63
2023-03-17T10:13:56.116Z,10.76
2023-03-17T10:16:43.420Z,10.80
2023-03-17T10:19:27.195Z,10.97
2023-03-17T10:22:06.425Z,11.20
2023-03-17T10:24:47.375Z,10.83
2023-03-17T10:27:21.753Z,11.13
2023-03-17T10:29:57.136Z,11.14
2023-03-17T10:32:37.842Z,10.87
2023-03-17T10:35:13.685Z,10.66
2023-03-17T10:37:49.054Z,10.72
2023-03-17T10:40:25.307Z,10.61
2023-03-17T10:43:06.031Z,10.83
2023-03-17T10:45:47.971Z,11.40
2023-03-17T10:48:23.663Z,11.32
2023-03-17T10:50:59.804Z,10.90
2023-03-17T10:53:38.799Z,11.11
2023-03-17T10:56:23.633Z,11.15
2023-03-17T10:58:59.012Z,11.55
2023-03-17T11:01:40.033Z,11.82
2023-03-17T11:04:37.172Z,11.48
2023-03-17T11:07:18.436Z,11.32
2023-03-17T11:09:58.465Z,11.08
2023-03-17T11:12:40.647Z,11.37
2023-03-17T11:15:17.904Z,11.69
2023-03-17T11:17:57.272Z,11.92
2023-03-17T11:20:52.705Z,11.50
2023-03-17T11:23:51.784Z,11.69
2023-03-17T11:26:47.368Z,11.90
2023-03-17T11:29:38.597Z,12.25
2023-03-17T11:32:27.576Z,12.38
2023-03-17T11:35:20.935Z,12.52
2023-03-17T11:38:24.622Z,12.79
2023-03-17T11:41:18.853Z,12.70
2023-03-17T11:44:19.651Z,12.92
2023-03-17T11:47:02.070Z,12.75
2023-03-17T11:49:38.838Z,13.23
2023-03-17T11:52:22.385Z,14.92
2023-03-17T11:55:11.383Z,14.90
2023-03-17T11:57:49.909Z,14.10
2023-03-17T12:00:31.421Z,13.53
2023-03-17T12:03:17.671Z,12.99
2023-03-17T12:05:58.303Z,13.65
2023-03-17T12:08:39.154Z,13.35
2023-03-17T12:11:22.172Z,13.67
2023-03-17T12:14:00.965Z,13.69
2023-03-17T12:16:41.948Z,13.44
2023-03-17T12:19:24.679Z,13.16
2023-03-17T12:22:04.135Z,12.96
2023-03-17T12:24:43.837Z,13.09
2023-03-17T12:27:25.758Z,13.09
2023-03-17T12:30:03.130Z,13.61
2023-03-17T12:32:45.989Z,13.87
2023-03-17T12:35:32.850Z,13.23
2023-03-17T12:38:13.855Z,13.72
2023-03-17T12:41:13.280Z,13.03
2023-03-17T12:44:04.466Z,13.19
2023-03-17T12:47:05.600Z,13.40
2023-03-17T12:50:13.736Z,13.55
2023-03-17T12:53:15.924Z,13.76
2023-03-17T12:55:53.690Z,13.78
2023-03-17T12:58:36.506Z,14.35
2023-03-17T13:01:23.392Z,14.61
2023-03-17T13:04:14.711Z,14.68
2023-03-17T13:06:58.244Z,14.92
2023-03-17T13:09:45.287Z,15.61
2023-03-17T13:12:58.247Z,16.54
2023-03-17T13:16:00.012Z,15.40
2023-03-17T13:19:07.563Z,15.30
2023-03-17T13:21:46.707Z,15.58
2023-03-17T13:24:25.276Z,15.46
2023-03-17T13:27:02.167Z,15.91
2023-03-17T13:29:50.260Z,14.94
2023-03-17T13:32:40.781Z,15.04
2023-03-17T13:35:20.257Z,14.39
2023-03-17T13:38:37.166Z,14.94
2023-03-17T13:41:32.641Z,14.84
2023-03-17T13:44:25.260Z,14.85
2023-03-17T13:47:17.414Z,15.14
2023-03-17T13:49:57.221Z,15.11
2023-03-17T13:52:39.442Z,15.01
2023-03-17T13:55:41.029Z,14.79
2023-03-17T13:58:26.465Z,14.79
2023-03-17T14:01:06.832Z,14.39
2023-03-17T14:03:45.331Z,14.35
2023-03-17T14:06:21.188Z,14.69
2023-03-17T14:09:00.848Z,14.52
2023-03-17T14:11:38.910Z,14.36
2023-03-17T14:14:32.448Z,14.66
2023-03-17T14:17:14.880Z,14.11
2023-03-17T14:20:08.769Z,13.73
2023-03-17T14:22:45.762Z,14.29
2023-03-17T14:25:23.599Z,14.48
2023-03-17T14:28:00.295Z,14.20
2023-03-17T14:30:37.378Z,13.95
2023-03-17T14:33:24.758Z,14.24
2023-03-17T14:36:01.836Z,14.48
2023-03-17T14:38:38.526Z,14.25
2023-03-17T14:41:20.894Z,14.64
2023-03-17T14:43:59.279Z,14.58
2023-03-17T14:46:37.248Z,14.51
2023-03-17T14:49:17.994Z,14.34
2023-03-17T14:51:54.344Z,13.86
2023-03-17T14:54:33.311Z,14.11
2023-03-17T14:57:15.863Z,14.38
2023-03-17T14:59:58.268Z,14.42
2023-03-17T15:03:31.730Z,14.43
2023-03-17T15:06:22.729Z,14.43
2023-03-17T15:09:00.460Z,13.76
2023-03-17T15:11:39.691Z,14.05
2023-03-17T15:14:21.311Z,14.31
2023-03-17T15:16:57.351Z,14.48
2023-03-17T15:19:41.508Z,14.69
2023-03-17T15:22:25.904Z,14.27
2023-03-17T15:25:02.469Z,14.45
2023-03-17T15:27:36.957Z,14.18
2023-03-17T15:30:12.892Z,13.72
2023-03-17T15:32:53.037Z,13.37
2023-03-17T15:35:29.450Z,13.51
2023-03-17T15:38:04.499Z,13.47
2023-03-17T15:40:38.944Z,13.50
2023-03-17T15:43:16.409Z,13.42
2023-03-17T15:45:56.634Z,13.62
2023-03-17T15:48:32.854Z,13.22
2023-03-17T15:51:08.678Z,12.93
2023-03-17T15:53:43.298Z,12.68
2023-03-17T15:56:20.532Z,12.75
2023-03-17T15:58:55.578Z,12.20
2023-03-17T16:01:30.137Z,12.22
2023-03-17T16:04:05.612Z,12.02
2023-03-17T16:06:41.383Z,11.82
2023-03-17T16:09:17.978Z,11.73
2023-03-17T16:11:52.454Z,11.30
2023-03-17T16:14:27.956Z,11.22
2023-03-17T16:17:02.617Z,11.22
2023-03-17T16:19:37.180Z,11.15
2023-03-17T16:22:36.620Z,11.08
2023-03-17T16:25:21.607Z,11.00
2023-03-17T16:27:58.047Z,11.39
2023-03-17T16:30:35.978Z,11.54
2023-03-17T16:33:17.039Z,11.83
2023-03-17T16:35:53.525Z,11.32
2023-03-17T16:38:31.963Z,10.93
2023-03-17T16:41:09.580Z,10.73
2023-03-17T16:43:46.402Z,10.64
2023-03-17T16:46:22.668Z,10.45
2023-03-17T16:48:57.269Z,10.37
2023-03-17T16:51:32.285Z,10.20
2023-03-17T16:54:08.083Z,10.15
2023-03-17T16:56:43.518Z,10.12
2023-03-17T16:59:21.985Z,10.09
2023-03-17T17:01:56.713Z,9.99
2023-03-17T17:04:31.314Z,9.99
2023-03-17T17:07:06.261Z,9.82
2023-03-17T17:09:42.270Z,9.78
2023-03-17T17:12:17.097Z,9.74
2023-03-17T17:14:51.638Z,9.67
2023-03-17T17:17:26.420Z,9.53
2023-03-17T17:20:02.229Z,9.45
2023-03-17T17:22:36.962Z,9.44
2023-03-17T17:25:12.831Z,9.35
2023-03-17T17:27:48.255Z,9.25
2023-03-17T17:30:25.731Z,9.21
2023-03-17T17:33:02.010Z,9.05
2023-03-17T17:35:36.754Z,9.02
2023-03-17T17:38:18.665Z,8.94
2023-03-17T17:40:55.677Z,8.99
2023-03-17T17:43:30.872Z,8.80
2023-03-17T17:46:05.545Z,8.83
2023-03-17T17:48:41.876Z,8.78
2023-03-17T17:51:16.715Z,8.65
2023-03-17T17:53:52.736Z,8.66
2023-03-17T17:56:28.411Z,8.66
2023-03-17T17:59:03.735Z,8.57
2023-03-17T18:01:39.009Z,8.58
2023-03-17T18:04:13.960Z,8.47
2023-03-17T18:06:48.642Z,8.38
2023-03-17T18:09:23.770Z,8.27
2023-03-17T18:11:59.963Z,8.26
2023-03-17T18:14:34.913Z,8.32
2023-03-17T18:17:11.052Z,8.14
2023-03-17T18:19:45.944Z,8.20
2023-03-17T18:22:21.596Z,8.25
2023-03-17T18:24:56.790Z,8.08
2023-03-17T18:27:35.735Z,8.10
2023-03-17T18:30:13.778Z,7.98
2023-03-17T18:32:49.867Z,8.00
2023-03-17T18:35:28.233Z,7.94
2023-03-17T18:38:03.284Z,7.88
2023-03-17T18:40:38.326Z,7.76
2023-03-17T18:43:14.094Z,7.78
2023-03-17T18:45:48.864Z,7.83
2023-03-17T18:48:31.233Z,7.75
2023-03-17T18:51:06.417Z,7.65
2023-03-17T18:53:41.259Z,7.65
2023-03-17T18:56:16.993Z,7.48
2023-03-17T18:58:52.903Z,7.42
2023-03-17T19:01:32.869Z,7.37
2023-03-17T19:04:07.851Z,10.17
2023-03-17T19:06:42.919Z,9.84
2023-03-17T19:09:17.703Z,11.22
2023-03-17T19:11:52.872Z,9.72
2023-03-17T19:14:28.957Z,8.94
2023-03-17T19:17:04.370Z,8.73
2023-03-17T19:19:40.116Z,8.12
2023-03-17T19:22:18.059Z,8.00
2023-03-17T19:24:55.525Z,7.80
2023-03-17T19:27:32.387Z,7.59
2023-03-17T19:30:10.362Z,7.50
2023-03-17T19:32:45.342Z,7.38
2023-03-17T19:35:20.101Z,7.26
2023-03-17T19:37:55.297Z,7.29
2023-03-17T19:40:30.195Z,7.07
2023-03-17T19:43:06.361Z,7.09
2023-03-17T19:45:42.771Z,6.92
2023-03-17T19:48:17.822Z,6.84
2023-03-17T19:50:52.085Z,7.01
2023-03-17T19:53:27.279Z,6.86
2023-03-17T19:56:02.387Z,8.31
2023-03-17T19:58:37.873Z,10.78
2023-03-17T20:01:14.807Z,9.30
2023-03-17T20:03:49.926Z,8.52
2023-03-17T20:06:24.564Z,7.98
2023-03-17T20:08:59.382Z,7.67
2023-03-17T20:11:34.208Z,7.43
2023-03-17T20:14:09.129Z,7.20
2023-03-17T20:16:45.165Z,6.99
2023-03-17T20:19:19.989Z,6.78
2023-03-17T20:21:54.537Z,6.73
2023-03-17T20:24:31.530Z,6.85
2023-03-17T20:27:12.725Z,6.68
2023-03-17T20:29:48.655Z,6.70
2023-03-17T20:32:34.494Z,6.68
2023-03-17T20:35:10.288Z,6.64
2023-03-17T20:37:45.103Z,6.64
2023-03-17T20:40:23.384Z,6.48
2023-03-17T20:42:57.662Z,6.51
2023-03-17T20:45:32.580Z,6.55
2023-03-17T20:48:10.871Z,6.58
2023-03-17T20:50:50.975Z,6.32
2023-03-17T20:53:25.518Z,6.18
2023-03-17T20:56:03.373Z,6.29
2023-03-17T20:58:47.077Z,6.24
2023-03-17T21:01:23.731Z,6.15
2023-03-17T21:04:00.762Z,6.07
2023-03-17T21:06:38.110Z,6.05
2023-03-17T21:09:13.386Z,6.20
2023-03-17T21:11:49.327Z,6.15
2023-03-17T21:14:26.184Z,6.08
2023-03-17T21:17:03.975Z,6.01
2023-03-17T21:19:39.870Z,5.96
2023-03-17T21:22:15.234Z,5.92
2023-03-17T21:24:49.653Z,5.87
2023-03-17T21:27:24.287Z,5.86
2023-03-17T21:29:58.681Z,5.96
2023-03-17T21:32:33.419Z,5.93
2023-03-17T21:35:14.720Z,5.89
2023-03-17T21:37:50.601Z,5.78
2023-03-17T21:40:31.181Z,5.78
2023-03-17T21:43:06.061Z,5.68
2023-03-17T21:45:40.697Z,5.71
2023-03-17T21:48:15.205Z,5.68
2023-03-17T21:50:50.923Z,5.76
2023-03-17T21:53:25.874Z,5.75
2023-03-17T21:56:00.120Z,9.45
2023-03-17T21:58:34.967Z,10.66
2023-03-17T22:01:09.503Z,10.10
2023-03-17T22:03:44.618Z,8.71
2023-03-17T22:06:22.077Z,7.88
2023-03-17T22:08:56.711Z,7.06
2023-03-17T22:11:31.385Z,6.50
2023-03-17T22:14:06.056Z,6.28
2023-03-17T22:16:40.279Z,6.13
2023-03-17T22:19:15.850Z,6.07
2023-03-17T22:21:51.879Z,5.91
2023-03-17T22:24:26.712Z,5.83
2023-03-17T22:27:01.290Z,5.85
2023-03-17T22:29:36.836Z,5.70
2023-03-17T22:32:11.472Z,5.66
2023-03-17T22:34:45.966Z,5.75
2023-03-17T22:37:21.557Z,5.73
2023-03-17T22:39:56.150Z,5.69
2023-03-17T22:42:31.148Z,5.68
2023-03-17T22:45:06.452Z,5.73
2023-03-17T22:47:40.710Z,5.62
2023-03-17T22:50:15.743Z,5.66
2023-03-17T22:52:51.655Z,5.69
2023-03-17T22:55:26.264Z,5.73
2023-03-17T22:58:00.488Z,5.75
2023-03-17T23:03:03.881Z,6.41
2023-03-17T23:05:38.988Z,6.41
2023-03-17T23:08:14.007Z,5.82
2023-03-17T23:10:50.026Z,5.83
2023-03-17T23:13:25.267Z,5.86
2023-03-17T23:16:00.038Z,5.84
2023-03-17T23:18:36.045Z,5.78
2023-03-17T23:21:11.334Z,5.75
2023-03-17T23:23:45.614Z,5.77
2023-03-17T23:26:20.554Z,5.79
2023-03-17T23:28:55.040Z,5.61
2023-03-17T23:31:30.383Z,5.55
2023-03-17T23:34:09.219Z,5.51
2023-03-17T23:36:43.768Z,5.37
2023-03-17T23:39:18.019Z,5.21
2023-03-17T23:41:52.634Z,4.94
2023-03-17T23:44:27.253Z,4.76
2023-03-17T23:47:01.844Z,4.94
2023-03-17T23:49:38.325Z,5.01
2023-03-17T23:52:13.315Z,5.08
2023-03-17T23:54:47.546Z,5.09
2023-03-17T23:57:22.951Z,5.10
2023-03-17T23:59:57.250Z,5.09
